Time;durP1;ratioP1;P1;durP2;ratioP2;P2;SDS_P1;SDS_P2;PMS_P1;PMS_P2;Temp;Humidity;BMP_temperature;BMP_pressure;BME280_temperature;BME280_humidity;BME280_pressure;Samples;Min_cycle;Max_cycle;Signal;HPM_P1;HPM_P2
2023/03/03 00:01:42;;;;;;;4.72;0.80;;;18.30;33.30;;;;;;4766872;30;20215;-86
2023/03/03 00:04:21;;;;;;;2.60;0.82;;;18.30;33.40;;;;;;4735308;30;20198;-86
2023/03/03 00:06:58;;;;;;;4.22;0.73;;;18.30;33.30;;;;;;4705390;30;20201;-86
2023/03/03 00:09:53;;;;;;;1.88;0.80;;;18.30;33.40;;;;;;4713869;30;20200;-86
2023/03/03 00:12:28;;;;;;;3.20;0.63;;;18.30;33.40;;;;;;4783116;30;20658;-86
2023/03/03 00:14:55;;;;;;;2.10;0.50;;;18.30;33.50;;;;;;4791378;30;20192;-85
2023/03/03 00:17:25;;;;;;;3.60;0.75;;;18.30;33.50;;;;;;4781022;30;20196;-85
2023/03/03 00:20:00;;;;;;;3.50;0.82;;;18.30;33.50;;;;;;4803487;29;20196;-85
2023/03/03 00:22:43;;;;;;;3.75;0.70;;;18.30;33.40;;;;;;4807281;29;20259;-86
2023/03/03 00:25:31;;;;;;;2.00;0.70;;;18.30;33.50;;;;;;4791846;29;20193;-86
2023/03/03 00:28:28;;;;;;;2.72;0.70;;;18.20;33.50;;;;;;4809767;29;20221;-86
2023/03/03 00:34:30;;;;;;;0.90;0.50;;;18.30;33.60;;;;;;4800977;29;20759;-86
2023/03/03 00:36:58;;;;;;;3.63;0.80;;;18.20;33.50;;;;;;4816947;29;20771;-85
2023/03/03 00:39:45;;;;;;;1.88;0.52;;;18.30;33.60;;;;;;4832306;29;20243;-85
2023/03/03 00:42:18;;;;;;;4.25;0.73;;;18.20;33.60;;;;;;4834134;29;20197;-85
2023/03/03 00:45:18;;;;;;;2.75;0.60;;;18.20;33.50;;;;;;4787592;29;20194;-86
2023/03/03 00:47:53;;;;;;;1.02;0.50;;;18.20;33.70;;;;;;4816127;29;20198;-86
2023/03/03 00:50:37;;;;;;;1.90;0.73;;;18.20;33.50;;;;;;4801968;29;20235;-86
2023/03/03 00:53:16;;;;;;;0.90;0.60;;;18.20;33.60;;;;;;4775996;30;20218;-85
2023/03/03 00:55:48;;;;;;;0.80;0.45;;;18.20;33.60;;;;;;4765658;30;20203;-86
2023/03/03 00:58:27;;;;;;;2.90;0.60;;;18.20;33.60;;;;;;4765604;30;20183;-86
2023/03/03 01:00:59;;;;;;;3.90;0.70;;;18.20;33.60;;;;;;4736984;30;20214;-85
2023/03/03 01:06:46;;;;;;;3.80;0.70;;;18.20;33.70;;;;;;4701843;30;20191;-85
2023/03/03 01:09:22;;;;;;;2.28;0.70;;;18.10;33.60;;;;;;4713480;30;20245;-86
2023/03/03 01:12:14;;;;;;;2.97;0.50;;;18.20;33.70;;;;;;4728371;30;20226;-86
2023/03/03 01:14:44;;;;;;;2.35;0.75;;;18.20;33.70;;;;;;4748771;30;20666;-86
2023/03/03 01:17:13;;;;;;;1.67;0.60;;;18.20;33.80;;;;;;4715676;30;20216;-86
2023/03/03 01:19:57;;;;;;;3.67;0.77;;;18.10;33.70;;;;;;4730795;30;20189;-86
2023/03/03 01:22:32;;;;;;;4.22;0.75;;;18.20;33.70;;;;;;4731636;30;20223;-86
2023/03/03 01:25:06;;;;;;;2.67;0.70;;;18.20;33.70;;;;;;4730897;30;20217;-86
2023/03/03 01:27:39;;;;;;;3.53;0.98;;;18.10;33.80;;;;;;4719553;30;20293;-85
2023/03/03 01:30:29;;;;;;;2.45;0.70;;;18.20;33.80;;;;;;4748380;30;20197;-85
2023/03/03 01:33:04;;;;;;;2.70;0.82;;;18.10;33.80;;;;;;4738164;30;20197;-86
2023/03/03 01:35:52;;;;;;;3.28;0.90;;;18.10;33.80;;;;;;4732838;30;20192;-85
2023/03/03 01:38:42;;;;;;;3.00;0.70;;;18.20;33.80;;;;;;4736210;30;20185;-85
2023/03/03 01:41:22;;;;;;;1.27;0.60;;;18.10;33.80;;;;;;4744691;30;20205;-86
2023/03/03 01:43:51;;;;;;;1.58;0.60;;;18.10;33.90;;;;;;4743497;30;20279;-85
2023/03/03 01:46:33;;;;;;;3.22;0.52;;;18.10;33.90;;;;;;4710137;30;20208;-85
2023/03/03 01:49:11;;;;;;;2.65;0.70;;;18.10;33.90;;;;;;4772415;30;20193;-86
2023/03/03 01:51:42;;;;;;;4.50;1.02;;;18.10;33.90;;;;;;4757813;30;20254;-86
2023/03/03 01:54:20;;;;;;;2.08;0.75;;;18.10;33.90;;;;;;4769342;30;20727;-86
2023/03/03 02:00:17;;;;;;;2.90;0.57;;;18.10;33.90;;;;;;4781631;30;20204;-85
2023/03/03 02:06:19;;;;;;;1.92;0.70;;;18.10;33.90;;;;;;4808115;29;20170;-85
2023/03/03 02:09:08;;;;;;;1.42;0.50;;;18.10;34.00;;;;;;4815777;29;20619;-85
2023/03/03 02:11:35;;;;;;;3.03;0.82;;;18.10;34.00;;;;;;4793427;29;20211;-86
2023/03/03 02:14:24;;;;;;;3.30;0.80;;;18.10;34.10;;;;;;4783135;30;20303;-85
2023/03/03 02:17:15;;;;;;;1.45;0.45;;;18.10;34.00;;;;;;4779512;29;20193;-86
2023/03/03 02:20:47;;;;;;;2.13;0.70;;;18.00;34.00;;;;;;4811006;29;20202;-86
2023/03/03 02:23:13;;;;;;;1.50;0.80;;;18.00;34.00;;;;;;4801187;30;20324;-87
2023/03/03 02:32:09;;;;;;;3.35;0.77;;;18.00;34.10;;;;;;4765125;30;20221;-86
2023/03/03 02:34:58;;;;;;;1.27;0.77;;;18.00;34.10;;;;;;4747140;30;20234;-86
2023/03/03 02:37:28;;;;;;;2.88;0.60;;;18.00;34.20;;;;;;4725504;30;20190;-86
2023/03/03 02:40:02;;;;;;;2.08;0.80;;;18.00;34.20;;;;;;4729353;30;20198;-85
2023/03/03 02:42:40;;;;;;;2.72;0.68;;;18.00;34.10;;;;;;4729851;30;20264;-86
2023/03/03 02:45:14;;;;;;;1.17;0.57;;;18.00;34.20;;;;;;4754141;30;20199;-86
2023/03/03 02:47:51;;;;;;;3.92;0.82;;;18.00;34.20;;;;;;4746532;30;20193;-86
2023/03/03 02:50:17;;;;;;;1.92;0.50;;;18.00;34.20;;;;;;4729570;30;20198;-85
2023/03/03 02:52:47;;;;;;;1.38;0.82;;;18.00;34.20;;;;;;4730575;30;20751;-85
2023/03/03 02:55:13;;;;;;;1.80;0.80;;;17.90;34.10;;;;;;4729876;30;20241;-85
2023/03/03 02:57:47;;;;;;;2.30;0.57;;;18.00;34.20;;;;;;4729949;30;20193;-85
2023/03/03 03:00:13;;;;;;;1.33;0.50;;;18.00;34.20;;;;;;4747113;30;20351;-85
2023/03/03 03:02:49;;;;;;;1.95;0.70;;;18.00;34.20;;;;;;4792424;29;20197;-86
2023/03/03 03:05:18;;;;;;;2.28;0.60;;;18.00;34.30;;;;;;4844161;29;20200;-85
2023/03/03 03:07:55;;;;;;;2.55;0.68;;;18.00;34.20;;;;;;4839823;29;20181;-84
2023/03/03 03:10:22;;;;;;;3.08;1.00;;;18.00;34.20;;;;;;4839701;29;20563;-85
2023/03/03 03:12:55;;;;;;;2.15;0.60;;;18.00;34.30;;;;;;4839923;29;20293;-85
2023/03/03 03:15:47;;;;;;;2.05;0.57;;;18.00;34.30;;;;;;4846497;29;20198;-84
2023/03/03 03:19:08;;;;;;;1.35;0.55;;;17.90;34.20;;;;;;4820769;29;20216;-85
2023/03/03 03:22:14;;;;;;;2.72;0.63;;;17.90;34.30;;;;;;4820901;29;20182;-85
2023/03/03 03:24:34;;;;;;;3.88;0.52;;;17.90;34.30;;;;;;4807668;29;20233;-87
2023/03/03 03:27:05;;;;;;;2.90;0.60;;;18.00;34.40;;;;;;4803123;29;20682;-85
2023/03/03 03:29:56;;;;;;;1.60;0.88;;;18.00;34.40;;;;;;4818388;29;20218;-86
2023/03/03 03:32:27;;;;;;;2.08;0.52;;;18.00;34.30;;;;;;4817546;29;20242;-85
2023/03/03 03:38:46;;;;;;;1.02;0.60;;;17.90;34.30;;;;;;4818436;29;20186;-85
2023/03/03 03:41:26;;;;;;;1.48;0.40;;;18.00;34.30;;;;;;4818338;29;20218;-85
2023/03/03 03:44:02;;;;;;;2.95;0.65;;;18.00;34.30;;;;;;4784775;30;20195;-85
2023/03/03 03:46:43;;;;;;;1.05;0.50;;;17.90;34.30;;;;;;4778656;30;20200;-85
2023/03/03 03:49:11;;;;;;;2.47;0.70;;;17.90;35.00;;;;;;4779019;30;20189;-85
2023/03/03 03:51:52;;;;;;;3.63;0.60;;;17.90;34.40;;;;;;4778518;30;20220;-85
2023/03/03 03:54:34;;;;;;;1.33;0.65;;;17.90;34.40;;;;;;4794441;29;20250;-85
2023/03/03 03:57:02;;;;;;;0.95;0.50;;;17.90;34.40;;;;;;4843924;29;20231;-85
2023/03/03 03:59:34;;;;;;;1.45;0.68;;;17.90;34.40;;;;;;4835383;29;20274;-85
2023/03/03 04:02:01;;;;;;;1.92;0.73;;;18.00;34.50;;;;;;4821305;29;20209;-85
2023/03/03 04:04:41;;;;;;;2.40;0.60;;;17.90;34.40;;;;;;4799369;30;20709;-85
2023/03/03 04:07:18;;;;;;;1.60;0.60;;;17.90;34.40;;;;;;4785559;30;20548;-86
2023/03/03 04:10:40;;;;;;;1.80;0.63;;;17.90;34.40;;;;;;4811027;29;20189;-86
2023/03/03 04:12:44;;;;;;;2.20;0.50;;;17.90;34.40;;;;;;4831853;29;20224;-86
2023/03/03 04:19:16;;;;;;;1.50;0.60;;;17.90;34.40;;;;;;4888368;29;20171;-86
2023/03/03 04:22:01;;;;;;;2.15;0.50;;;17.90;34.50;;;;;;4875701;29;20210;-85
2023/03/03 04:24:27;;;;;;;1.70;0.50;;;17.90;34.60;;;;;;4816087;29;20214;-85
2023/03/03 04:27:00;;;;;;;1.75;0.63;;;17.90;34.50;;;;;;4801918;29;20189;-85
2023/03/03 04:29:36;;;;;;;0.80;0.50;;;17.90;34.50;;;;;;4783866;30;20613;-85
2023/03/03 04:32:12;;;;;;;0.93;0.50;;;17.90;34.60;;;;;;4769443;30;20218;-84
2023/03/03 04:35:07;;;;;;;3.10;0.80;;;17.90;34.50;;;;;;4787269;29;20194;-85
2023/03/03 04:41:05;;;;;;;1.75;0.85;;;17.90;34.50;;;;;;4816502;29;20292;-84
2023/03/03 04:47:52;;;;;;;3.05;0.60;;;17.90;34.60;;;;;;4817387;29;20296;-85
2023/03/03 04:53:42;;;;;;;2.08;0.60;;;17.90;34.70;;;;;;4814834;29;20194;-84
2023/03/03 04:56:15;;;;;;;1.08;0.45;;;17.80;34.60;;;;;;4843793;29;20263;-84
2023/03/03 04:58:41;;;;;;;2.13;0.68;;;17.90;34.70;;;;;;4824822;29;20188;-84
2023/03/03 05:01:23;;;;;;;1.63;0.73;;;17.90;34.60;;;;;;4840866;29;20184;-85
2023/03/03 05:04:07;;;;;;;1.45;0.68;;;17.80;34.60;;;;;;4821729;29;20193;-85
2023/03/03 05:06:45;;;;;;;1.65;0.60;;;17.80;34.60;;;;;;4829015;29;20715;-85
2023/03/03 05:12:37;;;;;;;1.42;0.60;;;17.80;34.70;;;;;;4852345;29;20735;-85
2023/03/03 05:15:52;;;;;;;0.80;0.43;;;17.80;34.80;;;;;;4821631;29;20178;-87
2023/03/03 05:18:24;;;;;;;1.55;0.65;;;17.80;34.70;;;;;;4839150;29;20544;-85
2023/03/03 05:21:04;;;;;;;1.60;0.63;;;17.80;34.80;;;;;;4818699;29;20217;-84
2023/03/03 05:23:40;;;;;;;0.90;0.47;;;17.80;34.70;;;;;;4798134;29;20615;-85
2023/03/03 05:26:06;;;;;;;1.40;0.52;;;17.80;34.70;;;;;;4813787;29;20188;-87
2023/03/03 05:32:25;;;;;;;1.58;0.57;;;17.80;34.70;;;;;;4834893;29;20334;-85
2023/03/03 05:35:25;;;;;;;;;;;;;;;;;;;;;
2023/03/03 05:38:02;;;;;;;1.08;0.52;;;17.80;34.80;;;;;;4775745;30;20255;-85
2023/03/03 05:40:38;;;;;;;1.45;0.80;;;17.80;34.70;;;;;;4811138;29;20190;-85
2023/03/03 05:43:16;;;;;;;1.08;0.40;;;17.80;34.70;;;;;;4772199;29;20226;-84
2023/03/03 05:45:44;;;;;;;3.08;0.60;;;17.80;34.80;;;;;;4781688;29;20191;-84
2023/03/03 05:48:21;;;;;;;1.67;0.55;;;17.80;34.80;;;;;;4809307;29;20232;-85
2023/03/03 05:58:12;;;;;;;0.85;0.40;;;17.80;34.80;;;;;;4856467;29;20581;-85
2023/03/03 06:01:03;;;;;;;1.33;0.52;;;17.80;34.80;;;;;;4869684;29;20268;-85
2023/03/03 06:03:32;;;;;;;1.00;0.45;;;17.80;34.80;;;;;;4864839;29;20292;-84
2023/03/03 06:06:15;;;;;;;1.27;0.50;;;17.70;34.80;;;;;;4872712;29;20184;-84
2023/03/03 06:08:47;;;;;;;1.30;0.65;;;17.80;34.80;;;;;;4868453;29;20194;-84
2023/03/03 06:11:33;;;;;;;2.42;0.50;;;17.80;34.80;;;;;;4877753;29;20694;-84
2023/03/03 06:14:06;;;;;;;1.63;0.80;;;17.80;34.80;;;;;;4879678;29;20542;-84
2023/03/03 06:16:57;;;;;;;2.88;0.55;;;17.80;34.80;;;;;;4855110;29;20188;-85
2023/03/03 06:19:30;;;;;;;1.83;0.50;;;17.80;34.80;;;;;;4849349;29;20639;-84
2023/03/03 06:25:18;;;;;;;1.95;0.60;;;17.80;34.90;;;;;;4872425;29;20176;-86
2023/03/03 06:27:54;;;;;;;1.38;0.57;;;17.80;34.90;;;;;;4856333;29;20569;-85
2023/03/03 06:30:35;;;;;;;1.52;0.55;;;17.80;34.90;;;;;;4857470;29;20176;-86
2023/03/03 06:33:04;;;;;;;0.90;0.50;;;17.70;34.90;;;;;;4840206;29;20189;-86
2023/03/03 06:35:32;;;;;;;2.00;0.70;;;17.80;34.90;;;;;;4840206;29;20185;-86
2023/03/03 06:38:17;;;;;;;0.73;0.40;;;17.80;34.90;;;;;;4839834;29;20218;-86
2023/03/03 06:40:52;;;;;;;2.67;0.70;;;17.80;34.90;;;;;;4852075;29;20238;-86
2023/03/03 06:43:24;;;;;;;0.90;0.50;;;17.80;34.90;;;;;;4825054;29;20181;-87
2023/03/03 06:45:52;;;;;;;2.08;0.70;;;17.80;34.90;;;;;;4840531;29;20260;-86
2023/03/03 06:48:32;;;;;;;2.83;0.50;;;17.80;34.90;;;;;;4833418;29;20190;-87
2023/03/03 06:51:13;;;;;;;1.67;0.80;;;17.70;34.90;;;;;;4835946;29;20304;-87
2023/03/03 06:53:43;;;;;;;1.98;0.60;;;17.70;34.90;;;;;;4836791;29;20190;-86
2023/03/03 06:56:12;;;;;;;1.95;0.80;;;17.80;34.90;;;;;;4799154;29;20250;-86
2023/03/03 06:58:46;;;;;;;2.35;0.57;;;17.80;34.90;;;;;;4771071;30;20332;-86
2023/03/03 07:01:21;;;;;;;1.10;0.50;;;17.80;34.90;;;;;;4771838;30;20202;-87
2023/03/03 07:03:47;;;;;;;1.60;0.68;;;17.80;34.90;;;;;;4785555;30;20201;-86
2023/03/03 07:06:22;;;;;;;2.30;0.50;;;17.80;34.80;;;;;;4815999;29;20199;-87
2023/03/03 07:08:53;;;;;;;2.13;0.60;;;17.80;34.80;;;;;;4802465;29;20186;-86
2023/03/03 07:11:42;;;;;;;1.98;0.55;;;17.80;34.90;;;;;;4782427;30;20258;-87
2023/03/03 07:14:23;;;;;;;1.35;0.60;;;17.80;34.80;;;;;;4763245;30;20191;-87
2023/03/03 07:17:03;;;;;;;1.95;0.68;;;17.80;34.80;;;;;;4731296;30;20223;-87
2023/03/03 07:19:33;;;;;;;1.77;0.55;;;17.80;34.90;;;;;;4731768;30;20665;-87
2023/03/03 07:22:13;;;;;;;2.58;0.70;;;17.90;34.90;;;;;;4748481;30;20272;-87
2023/03/03 07:24:48;;;;;;;2.47;0.60;;;17.80;34.90;;;;;;4749131;30;20242;-87
2023/03/03 07:27:22;;;;;;;2.95;0.95;;;17.90;34.90;;;;;;4760857;30;20554;-85
2023/03/03 07:30:05;;;;;;;2.80;0.60;;;17.90;34.80;;;;;;4746302;30;20203;-86
2023/03/03 07:32:59;;;;;;;1.75;0.60;;;17.90;34.80;;;;;;4728728;30;20242;-86
2023/03/03 07:35:46;;;;;;;3.50;0.75;;;17.90;34.90;;;;;;4727281;30;20265;-86
2023/03/03 07:38:42;;;;;;;2.17;0.50;;;17.90;34.80;;;;;;4729186;30;20622;-86
2023/03/03 07:41:28;;;;;;;1.83;0.68;;;17.90;34.70;;;;;;4751330;30;20199;-85
2023/03/03 07:43:59;;;;;;;1.42;0.50;;;18.00;34.70;;;;;;4749788;30;20196;-87
2023/03/03 07:46:35;;;;;;;2.00;0.50;;;18.00;34.60;;;;;;4729980;30;20201;-85
2023/03/03 07:49:23;;;;;;;3.75;0.70;;;18.00;34.60;;;;;;4729702;30;20574;-87
2023/03/03 07:51:54;;;;;;;9.07;0.80;;;18.10;34.60;;;;;;4743218;30;20221;-86
2023/03/03 07:54:41;;;;;;;7.50;0.90;;;18.20;34.40;;;;;;4746107;30;20193;-87
2023/03/03 07:57:25;;;;;;;1.15;0.50;;;18.20;34.30;;;;;;4758039;30;20240;-87
2023/03/03 08:00:05;;;;;;;1.75;0.60;;;18.30;34.20;;;;;;4782878;30;20241;-87
2023/03/03 08:02:38;;;;;;;5.22;0.65;;;18.30;34.20;;;;;;4801452;29;20221;-87
2023/03/03 08:05:29;;;;;;;3.25;0.60;;;18.30;34.10;;;;;;4800610;29;20202;-87
2023/03/03 08:08:29;;;;;;;2.25;0.70;;;18.40;34.10;;;;;;4815826;29;20190;-87
2023/03/03 08:10:58;;;;;;;2.60;0.60;;;18.40;34.20;;;;;;4821640;29;20194;-86
2023/03/03 08:13:39;;;;;;;2.22;0.57;;;18.40;34.00;;;;;;4851569;29;20329;-85
2023/03/03 08:16:29;;;;;;;3.10;0.60;;;18.40;34.00;;;;;;4850642;29;20188;-85
2023/03/03 08:19:01;;;;;;;1.20;0.40;;;18.40;34.00;;;;;;4832142;29;20186;-85
2023/03/03 08:21:33;;;;;;;0.63;0.35;;;18.40;34.00;;;;;;4816287;29;20272;-86
2023/03/03 08:23:59;;;;;;;0.88;0.50;;;18.50;34.00;;;;;;4817831;29;20197;-85
2023/03/03 08:26:24;;;;;;;2.63;0.43;;;18.50;33.90;;;;;;4832973;29;20190;-85
2023/03/03 08:28:52;;;;;;;2.05;0.50;;;18.50;33.80;;;;;;4804907;29;20187;-86
2023/03/03 08:31:21;;;;;;;2.67;0.50;;;18.50;33.80;;;;;;4810199;29;20247;-85
2023/03/03 08:33:47;;;;;;;1.33;0.45;;;18.50;33.80;;;;;;4834397;29;20574;-85
2023/03/03 08:36:13;;;;;;;1.35;0.52;;;18.50;33.70;;;;;;4848421;29;20187;-85
2023/03/03 08:38:39;;;;;;;2.05;0.50;;;18.50;33.70;;;;;;4857124;29;20198;-85
2023/03/03 08:41:05;;;;;;;2.05;0.30;;;18.50;33.80;;;;;;4852570;29;20189;-86
2023/03/03 08:43:34;;;;;;;2.70;0.40;;;18.50;33.70;;;;;;4848703;29;20393;-86
2023/03/03 08:46:28;;;;;;;1.75;0.40;;;18.50;33.70;;;;;;4825753;29;20190;-85
2023/03/03 08:49:06;;;;;;;2.20;0.50;;;18.50;33.80;;;;;;4794991;29;20246;-85
2023/03/03 08:51:33;;;;;;;1.17;0.40;;;18.60;33.80;;;;;;4825927;29;20191;-84
2023/03/03 08:53:59;;;;;;;1.55;0.50;;;18.50;33.80;;;;;;4811509;29;20175;-84
2023/03/03 08:56:25;;;;;;;2.15;0.40;;;18.50;33.90;;;;;;4824451;29;20232;-85
2023/03/03 08:58:50;;;;;;;2.42;0.40;;;18.40;33.90;;;;;;4829453;29;20192;-86
2023/03/03 09:01:18;;;;;;;1.67;0.50;;;18.50;33.80;;;;;;4829731;29;20190;-86
2023/03/03 09:03:51;;;;;;;0.98;0.52;;;18.50;33.80;;;;;;4815467;29;20170;-86
2023/03/03 09:06:19;;;;;;;0.57;0.38;;;18.60;33.70;;;;;;4830817;29;20342;-86
2023/03/03 09:08:48;;;;;;;1.52;0.40;;;18.50;33.70;;;;;;4830042;29;20215;-86
2023/03/03 09:11:17;;;;;;;0.75;0.35;;;18.60;33.70;;;;;;4844766;29;20238;-86
2023/03/03 09:13:43;;;;;;;1.67;0.60;;;18.50;33.70;;;;;;4828838;29;20255;-85
2023/03/03 09:16:12;;;;;;;1.08;0.40;;;18.60;33.70;;;;;;4851839;29;20184;-85
2023/03/03 09:18:38;;;;;;;0.40;0.22;;;18.50;33.70;;;;;;4898452;29;20193;-86
2023/03/03 09:21:25;;;;;;;0.85;0.30;;;18.50;33.80;;;;;;4926902;29;20209;-84
2023/03/03 09:23:56;;;;;;;1.42;0.30;;;18.60;33.60;;;;;;4926253;29;20232;-86
2023/03/03 09:26:27;;;;;;;1.27;0.30;;;18.60;33.70;;;;;;4926003;29;20174;-86
2023/03/03 09:28:57;;;;;;;0.70;0.40;;;18.50;33.70;;;;;;4891074;29;20206;-86
2023/03/03 09:31:27;;;;;;;0.82;0.32;;;18.60;33.70;;;;;;4875973;29;20260;-85
2023/03/03 09:33:56;;;;;;;0.30;0.30;;;18.60;33.60;;;;;;4853163;29;20196;-86
2023/03/03 09:36:37;;;;;;;0.52;0.30;;;18.60;33.50;;;;;;4839694;29;20731;-86
2023/03/03 09:39:21;;;;;;;0.57;0.30;;;18.60;33.60;;;;;;4817355;29;20310;-85
2023/03/03 09:42:30;;;;;;;1.48;0.40;;;18.60;33.70;;;;;;4817606;29;20621;-86
2023/03/03 09:45:27;;;;;;;0.68;0.40;;;18.60;33.60;;;;;;4816553;29;20190;-84
2023/03/03 09:48:20;;;;;;;2.97;0.60;;;18.60;33.60;;;;;;4804707;29;20281;-84
2023/03/03 09:51:24;;;;;;;0.52;0.40;;;18.60;33.70;;;;;;4817569;29;20178;-85
2023/03/03 09:54:07;;;;;;;1.33;0.30;;;18.50;33.70;;;;;;4855748;29;20185;-85
2023/03/03 09:56:41;;;;;;;0.82;0.40;;;18.50;33.70;;;;;;4871575;29;20250;-86
2023/03/03 09:59:24;;;;;;;0.82;0.40;;;18.60;33.60;;;;;;4874180;29;20179;-84
2023/03/03 10:02:17;;;;;;;0.40;0.35;;;18.50;33.60;;;;;;4873879;29;20233;-85
2023/03/03 10:05:14;;;;;;;2.05;0.40;;;18.60;33.70;;;;;;4891282;29;20337;-87
2023/03/03 10:08:02;;;;;;;1.20;0.32;;;18.60;33.60;;;;;;4910077;29;20544;-86
2023/03/03 10:10:44;;;;;;;0.40;0.35;;;18.60;33.60;;;;;;4926273;29;20201;-85
2023/03/03 10:13:14;;;;;;;1.13;0.50;;;18.60;33.60;;;;;;4934150;29;20260;-86
2023/03/03 10:16:04;;;;;;;1.00;0.30;;;18.60;33.60;;;;;;4931706;29;20304;-86
2023/03/03 10:18:51;;;;;;;0.50;0.30;;;18.60;33.60;;;;;;4934090;29;20165;-86
2023/03/03 10:21:39;;;;;;;1.05;0.40;;;18.60;33.60;;;;;;4924786;29;20182;-84
2023/03/03 10:24:27;;;;;;;0.22;0.22;;;18.60;33.60;;;;;;4909688;29;20677;-86
2023/03/03 10:27:10;;;;;;;0.38;0.20;;;18.60;33.70;;;;;;4894412;29;20282;-86
2023/03/03 10:29:47;;;;;;;0.98;0.28;;;18.60;33.60;;;;;;4926090;29;20661;-85
2023/03/03 10:32:31;;;;;;;0.45;0.40;;;18.60;33.50;;;;;;4907162;29;20249;-86
2023/03/03 10:35:14;;;;;;;1.13;0.30;;;18.60;33.60;;;;;;4921656;29;20183;-85
2023/03/03 10:38:03;;;;;;;0.57;0.30;;;18.70;33.80;;;;;;4907288;29;20192;-85
2023/03/03 10:40:53;;;;;;;0.85;0.35;;;18.60;33.80;;;;;;4893234;29;20183;-85
2023/03/03 10:43:49;;;;;;;0.38;0.30;;;18.60;33.80;;;;;;4890546;29;20195;-85
2023/03/03 10:46:45;;;;;;;0.90;0.40;;;18.60;33.80;;;;;;4887371;29;20260;-84
2023/03/03 10:49:44;;;;;;;0.28;0.20;;;18.60;33.60;;;;;;4873069;29;20188;-86
2023/03/03 10:52:34;;;;;;;0.32;0.20;;;18.70;33.80;;;;;;4872577;29;20215;-85
2023/03/03 10:55:25;;;;;;;0.98;0.25;;;18.70;33.90;;;;;;4874977;29;20612;-85
2023/03/03 10:58:01;;;;;;;1.08;0.30;;;18.70;34.00;;;;;;4892454;29;20286;-86
2023/03/03 11:00:37;;;;;;;1.35;0.20;;;18.70;34.00;;;;;;4907652;29;20183;-86
2023/03/03 11:03:42;;;;;;;2.42;0.50;;;18.70;34.10;;;;;;4894502;29;20191;-85
2023/03/03 11:06:21;;;;;;;3.78;0.30;;;18.70;34.10;;;;;;4883916;29;20183;-86
2023/03/03 11:09:15;;;;;;;0.55;0.25;;;18.70;34.10;;;;;;4876130;29;20697;-86
2023/03/03 11:11:53;;;;;;;2.80;0.40;;;18.70;34.20;;;;;;4857731;29;20324;-86
2023/03/03 11:14:46;;;;;;;1.92;0.40;;;18.70;34.30;;;;;;4856774;29;20260;-87
2023/03/03 11:17:22;;;;;;;2.08;0.32;;;18.70;34.30;;;;;;4865205;29;20213;-85
2023/03/03 11:19:59;;;;;;;1.60;0.38;;;18.60;34.40;;;;;;4870818;29;20252;-85
2023/03/03 11:22:33;;;;;;;1.70;0.43;;;18.60;34.40;;;;;;4871796;29;20271;-86
2023/03/03 11:25:14;;;;;;;1.42;0.30;;;18.60;34.40;;;;;;4871250;29;20188;-86
2023/03/03 11:28:14;;;;;;;0.47;0.40;;;18.60;34.40;;;;;;4885293;29;20194;-85
2023/03/03 11:30:55;;;;;;;1.13;0.20;;;18.60;34.50;;;;;;4862799;29;20220;-86
2023/03/03 11:33:44;;;;;;;0.68;0.20;;;18.60;34.60;;;;;;4841009;29;20648;-86
2023/03/03 11:36:19;;;;;;;0.43;0.32;;;18.60;34.60;;;;;;4870498;29;20165;-86
2023/03/03 11:38:53;;;;;;;0.43;0.30;;;18.60;34.60;;;;;;4871481;29;20195;-86
2023/03/03 11:41:45;;;;;;;0.57;0.20;;;18.60;34.70;;;;;;4870884;29;20189;-86
2023/03/03 11:44:28;;;;;;;0.82;0.30;;;18.70;34.80;;;;;;4891620;29;20667;-86
2023/03/03 11:47:13;;;;;;;0.30;0.30;;;18.60;34.80;;;;;;4896337;29;20186;-87
2023/03/03 11:49:54;;;;;;;0.30;0.22;;;18.70;34.90;;;;;;4911811;29;20211;-87
2023/03/03 11:52:41;;;;;;;0.73;0.30;;;18.70;35.00;;;;;;4912652;29;20333;-86
2023/03/03 11:55:28;;;;;;;0.57;0.30;;;18.60;35.00;;;;;;4912049;29;20170;-86
2023/03/03 11:57:59;;;;;;;0.43;0.20;;;18.60;35.00;;;;;;4894358;29;20218;-84
2023/03/03 12:00:49;;;;;;;1.73;0.38;;;18.70;35.10;;;;;;4889831;29;20214;-86
2023/03/03 12:03:54;;;;;;;2.22;0.30;;;18.70;35.10;;;;;;4878021;29;20183;-86
2023/03/03 12:06:31;;;;;;;0.60;0.40;;;18.70;35.20;;;;;;4926764;29;20186;-86
2023/03/03 12:09:34;;;;;;;0.63;0.20;;;18.60;35.20;;;;;;4910592;29;20720;-86
2023/03/03 12:12:16;;;;;;;0.80;0.30;;;18.60;35.10;;;;;;4910298;29;20253;-83
2023/03/03 12:14:58;;;;;;;1.60;0.32;;;18.70;35.20;;;;;;4902786;29;20178;-84
2023/03/03 12:17:34;;;;;;;1.15;0.20;;;18.70;35.20;;;;;;4901982;29;20162;-83
2023/03/03 12:20:12;;;;;;;0.68;0.20;;;18.60;35.30;;;;;;4893903;29;20197;-85
2023/03/03 12:22:56;;;;;;;0.35;0.25;;;18.60;35.20;;;;;;4909653;29;20190;-85
2023/03/03 12:25:39;;;;;;;2.97;0.30;;;18.60;36.10;;;;;;4928584;29;20210;-86
2023/03/03 12:28:16;;;;;;;0.77;0.40;;;18.60;35.40;;;;;;4907736;29;20174;-84
2023/03/03 12:31:55;;;;;;;0.30;0.20;;;18.60;35.50;;;;;;4892847;29;20249;-85
2023/03/03 12:34:16;;;;;;;0.85;0.30;;;18.60;35.50;;;;;;4915286;29;20182;-85
2023/03/03 12:36:52;;;;;;;1.52;0.30;;;18.60;35.50;;;;;;4909446;29;20583;-85
2023/03/03 12:39:37;;;;;;;0.70;0.30;;;18.60;35.50;;;;;;4931677;29;20232;-84
2023/03/03 12:42:24;;;;;;;2.70;0.50;;;18.60;35.60;;;;;;4917393;29;20184;-84
2023/03/03 12:45:01;;;;;;;4.72;0.43;;;18.70;35.70;;;;;;4929395;29;20190;-83
2023/03/03 12:47:39;;;;;;;9.95;0.88;;;18.70;35.70;;;;;;4897012;29;20300;-84
2023/03/03 12:50:21;;;;;;;7.00;0.82;;;18.70;35.80;;;;;;4910103;29;20252;-83
2023/03/03 12:53:00;;;;;;;3.92;0.70;;;18.60;35.70;;;;;;4908876;29;20246;-83
2023/03/03 12:55:51;;;;;;;6.88;0.60;;;18.60;35.80;;;;;;4925519;29;20177;-82
2023/03/03 12:58:55;;;;;;;5.22;0.50;;;18.70;35.80;;;;;;4925972;29;20167;-84
2023/03/03 13:01:34;;;;;;;5.95;0.98;;;18.70;35.70;;;;;;4927087;29;20173;-84
2023/03/03 13:04:18;;;;;;;9.02;1.00;;;18.70;35.80;;;;;;4942734;29;20190;-85
2023/03/03 13:06:54;;;;;;;8.80;0.80;;;18.70;35.80;;;;;;4927416;29;20174;-85
2023/03/03 13:09:38;;;;;;;14.13;1.33;;;18.70;35.70;;;;;;4942826;29;20186;-85
2023/03/03 13:12:31;;;;;;;9.75;0.73;;;18.70;35.70;;;;;;4928909;29;20703;-83
2023/03/03 13:15:20;;;;;;;8.02;0.70;;;18.70;36.40;;;;;;4929934;29;20257;-85
2023/03/03 13:18:24;;;;;;;8.52;0.80;;;18.70;35.70;;;;;;4946625;29;20161;-85
2023/03/03 13:21:04;;;;;;;4.80;0.60;;;18.60;35.80;;;;;;4947447;29;20200;-84
2023/03/03 13:23:42;;;;;;;4.40;0.47;;;18.70;35.80;;;;;;4933579;29;20250;-86
2023/03/03 13:26:17;;;;;;;13.00;0.98;;;18.60;35.80;;;;;;4941969;29;20182;-84
2023/03/03 13:29:23;;;;;;;11.88;0.70;;;18.70;35.80;;;;;;4927664;29;20158;-85
2023/03/03 13:32:02;;;;;;;4.22;0.55;;;18.70;35.60;;;;;;4942505;29;20190;-85
2023/03/03 13:34:40;;;;;;;3.45;0.50;;;18.70;35.70;;;;;;4889504;29;20202;-85
2023/03/03 13:37:28;;;;;;;4.35;0.60;;;18.70;35.60;;;;;;4872137;29;20190;-85
2023/03/03 13:40:21;;;;;;;4.35;0.77;;;18.70;35.50;;;;;;4872913;29;20558;-85
2023/03/03 13:42:51;;;;;;;5.25;0.95;;;18.70;35.50;;;;;;4893711;29;20599;-86
2023/03/03 13:45:23;;;;;;;3.00;0.60;;;18.70;35.50;;;;;;4868531;29;20252;-85
2023/03/03 13:48:10;;;;;;;6.60;0.50;;;18.70;35.30;;;;;;4870132;29;20193;-86
2023/03/03 13:50:46;;;;;;;2.58;0.63;;;18.70;35.20;;;;;;4870008;29;20180;-86
2023/03/03 13:53:42;;;;;;;4.80;0.73;;;18.70;35.20;;;;;;4850541;29;20223;-84
2023/03/03 13:56:31;;;;;;;5.90;0.57;;;18.70;35.20;;;;;;4855825;29;20234;-84
2023/03/03 13:59:29;;;;;;;5.88;0.60;;;18.70;35.20;;;;;;4810487;29;20266;-85
2023/03/03 14:02:20;;;;;;;5.10;0.40;;;18.70;35.20;;;;;;4828707;29;20167;-84
2023/03/03 14:04:53;;;;;;;3.13;0.40;;;18.70;35.20;;;;;;4815881;29;20742;-84
2023/03/03 14:07:25;;;;;;;2.63;0.47;;;18.70;35.30;;;;;;4830679;29;20165;-84
2023/03/03 14:09:57;;;;;;;7.47;0.40;;;18.70;35.30;;;;;;4829834;29;20284;-84
2023/03/03 14:12:36;;;;;;;3.65;0.55;;;18.70;35.40;;;;;;4842078;29;20220;-85
2023/03/03 14:15:23;;;;;;;3.90;0.82;;;18.70;35.30;;;;;;4867581;29;20156;-84
2023/03/03 14:18:10;;;;;;;3.45;0.50;;;18.70;35.20;;;;;;4922783;29;20171;-82
2023/03/03 14:20:38;;;;;;;0.82;0.35;;;18.70;35.20;;;;;;4905822;29;20629;-84
2023/03/03 14:23:30;;;;;;;2.90;0.30;;;18.80;35.10;;;;;;4888468;29;20171;-84
2023/03/03 14:26:06;;;;;;;2.22;0.40;;;18.70;35.00;;;;;;4923834;29;20163;-85
2023/03/03 14:28:42;;;;;;;1.98;0.30;;;18.70;34.90;;;;;;4892333;29;20257;-85
2023/03/03 14:31:26;;;;;;;2.65;0.50;;;18.70;34.80;;;;;;4889393;29;20197;-83
2023/03/03 14:34:23;;;;;;;3.05;0.30;;;18.70;34.80;;;;;;4889771;29;20257;-85
2023/03/03 14:36:52;;;;;;;1.58;0.43;;;18.70;34.70;;;;;;4920389;29;20198;-84
2023/03/03 14:39:41;;;;;;;0.73;0.40;;;18.70;34.60;;;;;;4905975;29;20181;-83
2023/03/03 14:42:28;;;;;;;0.90;0.40;;;18.80;34.60;;;;;;4922291;29;20619;-84
2023/03/03 14:44:55;;;;;;;1.00;0.47;;;18.70;34.60;;;;;;4923257;29;20254;-83
2023/03/03 14:47:22;;;;;;;2.72;0.40;;;18.80;34.60;;;;;;4893144;29;20202;-84
2023/03/03 14:49:49;;;;;;;3.65;0.40;;;18.80;34.80;;;;;;4891850;29;20174;-83